Silver Wind — C6FG2 — position and weather

sailwx.info

Track history (hours):
 
Tides and Currents Weather Stations Pressure Air Temp Water Temp Dewpoint Dewpoint Depression Visibility Wind Speed Wind Dir Waves Ship Positions

Silver Wind

Operator: V Ships Leisure

Last reported at 2019-Aug-22 09:00 UTC. Time now 2019-Aug-22 09:30 UTC.
Position N 49°49' W 003°29'.

Length 156 m; draft 5.7 m.

Type: Passenger vessel. MMSI: 308814000.

Date/timePositionNaut miles runAvg speedWind from/ knotsBaromVisibWave heightAir tempDewpointWater temp
2019-Aug-22 09:00N 49°49' W 003°29'918.0
2019-Aug-22 08:30N 49°48' W 003°43'918.0
2019-Aug-22 08:01N 49°49' W 003°57'917.9
2019-Aug-22 07:30N 49°49' W 004°11'1117.7
2019-Aug-22 06:54N 49°49' W 004°27'717.4
2019-Aug-22 06:29N 49°49' W 004°38'917.3
2019-Aug-22 05:59N 49°49' W 004°52'817.1
2019-Aug-22 05:30N 49°49' W 005°04'917.1
2019-Aug-22 05:00N 49°49' W 005°18'1216.8
2019-Aug-22 04:19N 49°49' W 005°36'2213.2
2019-Aug-22 02:40N 50°03' W 006°01'1317.4
2019-Aug-22 01:57N 50°16' W 006°02'6616.7
2019-Aug-21 22:00N 51°22' W 006°00'120 5.4
2019-Aug-20 23:35N 53°22' W 005°56'5 7.4
2019-Aug-20 22:57N 53°20' W 006°03'4 9.3
2019-Aug-20 22:30N 53°21' W 006°10'2 3.4
2019-Aug-20 21:59N 53°21' W 006°13'0 0.0
2019-Aug-20 21:29N 53°21' W 006°13'0 0.0
2019-Aug-20 20:59N 53°21' W 006°13'0 0.0
2019-Aug-20 20:29N 53°21' W 006°13'0 0.0
2019-Aug-20 19:59N 53°21' W 006°13'0 0.0
2019-Aug-20 19:26N 53°21' W 006°13'0 0.0
2019-Aug-20 18:59N 53°21' W 006°13'0 0.0
2019-Aug-20 18:23N 53°21' W 006°13'0 0.0
2019-Aug-20 17:59N 53°21' W 006°13'0 0.0
2019-Aug-20 17:29N 53°21' W 006°13'0 0.0
2019-Aug-20 16:59N 53°21' W 006°13'0 0.0
2019-Aug-20 16:23N 53°21' W 006°13'0 0.0
2019-Aug-20 15:59N 53°21' W 006°13'0 0.0
2019-Aug-20 15:26N 53°21' W 006°13'0 0.0
2019-Aug-20 14:59N 53°21' W 006°13'0 0.0
2019-Aug-20 14:29N 53°21' W 006°13'0 0.0
2019-Aug-20 13:59N 53°21' W 006°13'0 0.0
2019-Aug-20 13:29N 53°21' W 006°13'0 0.0
2019-Aug-20 12:50N 53°21' W 006°13'0 0.0
2019-Aug-20 12:23N 53°21' W 006°13'0 0.0
2019-Aug-20 11:53N 53°21' W 006°13'0 0.0
2019-Aug-20 11:29N 53°21' W 006°13'0 0.0
2019-Aug-20 10:56N 53°21' W 006°13'0 0.0
2019-Aug-20 10:29N 53°21' W 006°13'0 0.0
2019-Aug-20 09:59N 53°21' W 006°13'0 0.0
2019-Aug-20 09:29N 53°21' W 006°13'0 0.0
2019-Aug-20 08:59N 53°21' W 006°13'0 0.0
2019-Aug-20 08:29N 53°21' W 006°13'0 0.0
2019-Aug-20 07:59N 53°21' W 006°13'0 0.0
2019-Aug-20 07:23N 53°21' W 006°13'0 0.0
2019-Aug-20 06:59N 53°21' W 006°13'0 0.0
2019-Aug-20 06:30N 53°21' W 006°13'2 4.2
2019-Aug-20 06:00N 53°21' W 006°09'510.5
2019-Aug-20 05:31N 53°22' W 006°01'5 9.5
2019-Aug-20 05:00N 53°26' W 005°56'5 9.9
2019-Aug-20 04:30N 53°30' W 005°53'3914.1
2019-Aug-20 01:43N 54°06' W 005°27'315.2
2019-Aug-20 01:30N 54°09' W 005°25'815.3
2019-Aug-20 01:00N 54°16' W 005°20'815.6
2019-Aug-20 00:30N 54°24' W 005°14'816.3
2019-Aug-20 00:00N 54°32' W 005°17'817.0
2019-Aug-19 23:30N 54°40' W 005°22'816.0
2019-Aug-19 23:00N 54°44' W 005°34'715.1
2019-Aug-19 22:30N 54°41' W 005°46'610.4
2019-Aug-19 21:59N 54°38' W 005°53'1 0.5
2019-Aug-19 20:29N 54°37' W 005°54'0 0.0
2019-Aug-19 19:47N 54°37' W 005°54'0 0.0
2019-Aug-19 18:50N 54°37' W 005°54'0 0.0
2019-Aug-19 18:29N 54°37' W 005°54'0 0.0
2019-Aug-19 17:59N 54°37' W 005°54'0 0.0
2019-Aug-19 17:26N 54°37' W 005°54'0 0.0
2019-Aug-19 16:59N 54°37' W 005°54'0 0.0
2019-Aug-19 16:29N 54°37' W 005°54'0 0.0
2019-Aug-19 15:59N 54°37' W 005°54'0 0.0
2019-Aug-19 15:29N 54°37' W 005°54'0 0.0
2019-Aug-19 14:59N 54°37' W 005°54'0 0.0
2019-Aug-19 14:26N 54°37' W 005°54'0 0.0
2019-Aug-19 13:59N 54°37' W 005°54'0 0.0
2019-Aug-19 13:26N 54°37' W 005°54'0 0.0
2019-Aug-19 12:44N 54°37' W 005°54'0 0.0
2019-Aug-19 12:26N 54°37' W 005°54'0 0.0
2019-Aug-19 11:59N 54°37' W 005°54'0 0.0
2019-Aug-19 11:29N 54°37' W 005°54'0 0.0
2019-Aug-19 10:56N 54°37' W 005°54'0 0.0
2019-Aug-19 10:29N 54°37' W 005°54'0 0.0
2019-Aug-19 09:56N 54°37' W 005°54'0 0.0
2019-Aug-19 09:29N 54°37' W 005°54'0 0.0
2019-Aug-19 08:56N 54°37' W 005°54'0 0.0
2019-Aug-19 08:29N 54°37' W 005°54'0 0.0
2019-Aug-19 07:53N 54°37' W 005°54'0 0.0
2019-Aug-19 07:29N 54°37' W 005°54'0 0.0
2019-Aug-19 06:59N 54°37' W 005°54'1 1.5
2019-Aug-19 06:30N 54°38' W 005°53'4 8.1
2019-Aug-19 06:00N 54°41' W 005°49'5 9.9
2019-Aug-19 05:30N 54°43' W 005°41'4 8.9
2019-Aug-19 05:00N 54°45' W 005°35'5 9.0
2019-Aug-19 04:30N 54°49' W 005°29'7 9.5
2019-Aug-19 03:47N 54°55' W 005°34'21 9.2
2019-Aug-19 01:33N 55°12' W 005°55'0 8.8
2019-Aug-19 01:30N 55°12' W 005°55'5 9.4
2019-Aug-19 01:00N 55°16' W 006°00'510.2
2019-Aug-19 00:30N 55°20' W 006°06'510.0
2019-Aug-19 00:00N 55°21' W 006°14'510.1
2019-Aug-18 23:30N 55°21' W 006°23'510.3
2019-Aug-18 23:00N 55°19' W 006°32'510.6
2019-Aug-18 22:30N 55°18' W 006°41'610.3
2019-Aug-18 21:58N 55°15' W 006°50'610.8
2019-Aug-18 21:27N 55°12' W 006°58'810.4
2019-Aug-18 20:37N 55°08' W 007°10'210.9
2019-Aug-18 20:25N 55°06' W 007°13'3 0.2
2019-Aug-18 05:48N 55°03' W 007°15'0 0.0
2019-Aug-18 05:09N 55°03' W 007°15'0 0.0
2019-Aug-18 03:57N 55°03' W 007°15'0 0.0
2019-Aug-17 08:47N 55°03' W 007°15'2 8.3
2019-Aug-17 08:29N 55°05' W 007°13'6 9.2
2019-Aug-17 07:52N 55°09' W 007°06'912.1
2019-Aug-17 07:07N 55°14' W 006°53'1 9.2
2019-Aug-17 06:59N 55°15' W 006°51'3 7.2
2019-Aug-17 06:30N 55°18' W 006°54'5 9.2
2019-Aug-17 05:57N 55°22' W 007°00'5 9.4
2019-Aug-17 05:26N 55°25' W 007°07'5 9.5
2019-Aug-17 04:57N 55°28' W 007°13'5 9.0
2019-Aug-17 04:22N 55°28' W 007°22'6 9.2
2019-Aug-17 03:45N 55°27' W 007°32'8 9.7
2019-Aug-17 02:58N 55°26' W 007°45'5 9.9
2019-Aug-17 02:30N 55°25' W 007°53'610.3
2019-Aug-17 01:55N 55°24' W 008°04'810.4
2019-Aug-17 01:07N 55°23' W 008°18'110.4
2019-Aug-17 00:59N 55°22' W 008°21'49 9.9
2019-Aug-16 20:05N 54°51' W 009°25'1510.3
2019-Aug-16 18:35N 54°39' W 009°43'710.0
2019-Aug-16 17:52N 54°34' W 009°51'810.1
2019-Aug-16 17:07N 54°28' W 009°60'310.1
2019-Aug-16 16:48N 54°26' W 010°04'310.3
2019-Aug-16 16:30N 54°24' W 010°07'612.5
2019-Aug-16 16:00N 54°19' W 010°14'714.2
2019-Aug-16 15:31N 54°14' W 010°22'714.2
2019-Aug-16 15:01N 54°08' W 010°30'713.4
2019-Aug-16 14:29N 54°01' W 010°32'713.6
2019-Aug-16 14:00N 53°55' W 010°32'713.2
2019-Aug-16 13:31N 53°48' W 010°31'713.1
2019-Aug-16 13:00N 53°42' W 010°30'713.3
2019-Aug-16 12:30N 53°35' W 010°30'612.9
2019-Aug-16 12:00N 53°29' W 010°27'712.7
2019-Aug-16 11:27N 53°23' W 010°22'612.6
2019-Aug-16 11:00N 53°18' W 010°18'611.6
2019-Aug-16 10:30N 53°14' W 010°10'611.8
2019-Aug-16 09:59N 53°13' W 009°60'611.7
2019-Aug-16 09:29N 53°12' W 009°50'612.8
2019-Aug-16 08:59N 53°12' W 009°40'102 8.0
2019-Aug-15 20:14N 51°34' W 010°30'415.6
2019-Aug-15 19:58N 51°31' W 010°26'714.8
2019-Aug-15 19:31N 51°30' W 010°15'815.5
2019-Aug-15 19:01N 51°33' W 010°03'816.1
2019-Aug-15 18:31N 51°35' W 009°51'816.6
2019-Aug-15 18:01N 51°39' W 009°39'713.9
2019-Aug-15 17:29N 51°43' W 009°29'2 3.1
2019-Aug-15 16:57N 51°41' W 009°28'0 0.0
2019-Aug-15 16:10N 51°41' W 009°28'0 0.1
2019-Aug-15 15:57N 51°41' W 009°28'0 0.0
2019-Aug-15 15:28N 51°41' W 009°28'0 0.0
2019-Aug-15 14:55N 51°41' W 009°28'0 0.0
2019-Aug-15 14:21N 51°41' W 009°28'0 0.0
2019-Aug-15 13:57N 51°41' W 009°28'0 0.1
2019-Aug-15 13:28N 51°41' W 009°28'0 0.0
2019-Aug-15 13:00N 51°41' W 009°28'0 0.0
2019-Aug-15 12:27N 51°41' W 009°28'0 0.0
2019-Aug-15 11:59N 51°41' W 009°28'0 0.1
2019-Aug-15 11:29N 51°41' W 009°28'0 0.0
2019-Aug-15 10:44N 51°41' W 009°28'0 0.0
2019-Aug-15 10:26N 51°41' W 009°28'0 0.0
2019-Aug-15 09:59N 51°41' W 009°28'0 0.0
2019-Aug-15 09:17N 51°41' W 009°28'0 0.0
2019-Aug-15 08:21N 51°41' W 009°28'0 0.0
2019-Aug-15 07:50N 51°41' W 009°28'0 0.0
2019-Aug-15 07:27N 51°41' W 009°28'0 0.0
2019-Aug-15 06:56N 51°41' W 009°28'0 0.0
2019-Aug-15 06:30N 51°41' W 009°28'2 3.8
2019-Aug-15 06:00N 51°42' W 009°30'4 9.0
2019-Aug-15 05:31N 51°40' W 009°36'5 9.6
2019-Aug-15 05:01N 51°38' W 009°43'510.0
2019-Aug-15 04:30N 51°35' W 009°50'510.3
2019-Aug-15 04:01N 51°32' W 009°56'510.8
2019-Aug-15 03:31N 51°27' W 009°58'611.0
2019-Aug-15 03:00N 51°22' W 009°53'510.1
2019-Aug-15 02:31N 51°21' W 009°45'510.2
2019-Aug-15 02:00N 51°20' W 009°37'510.2
2019-Aug-15 01:29N 51°21' W 009°28'5 9.7
2019-Aug-15 01:00N 51°23' W 009°21'610.0
2019-Aug-15 00:27N 51°24' W 009°13'510.3
2019-Aug-14 23:59N 51°26' W 009°05'5 9.2
2019-Aug-14 23:29N 51°27' W 008°58'5 9.5
2019-Aug-14 22:58N 51°28' W 008°50'4 9.6
2019-Aug-14 22:30N 51°29' W 008°44'5 9.9
2019-Aug-14 22:00N 51°30' W 008°36'510.1
2019-Aug-14 21:30N 51°31' W 008°28'5 9.6
2019-Aug-14 21:01N 51°34' W 008°22'510.1
2019-Aug-14 20:31N 51°39' W 008°18'510.0
2019-Aug-14 20:00N 51°43' W 008°15'510.4
2019-Aug-14 19:30N 51°49' W 008°16'3 5.4
2019-Aug-14 19:00N 51°50' W 008°20'0 0.1
2019-Aug-14 18:28N 51°50' W 008°20'0 0.0
2019-Aug-14 17:58N 51°50' W 008°20'0 0.0
2019-Aug-14 17:28N 51°50' W 008°20'0 0.0
2019-Aug-14 16:58N 51°50' W 008°20'0 0.0
2019-Aug-14 16:25N 51°50' W 008°20'0 0.0
2019-Aug-14 15:58N 51°50' W 008°20'0 0.0
2019-Aug-14 15:28N 51°50' W 008°20'0 0.0
2019-Aug-14 14:58N 51°50' W 008°20'0 0.0
2019-Aug-14 14:28N 51°50' W 008°20'0 0.0
2019-Aug-14 13:58N 51°50' W 008°20'0 0.0
2019-Aug-14 13:28N 51°50' W 008°20'0 0.0
2019-Aug-14 12:58N 51°50' W 008°20'0 0.0
2019-Aug-14 12:28N 51°50' W 008°20'0 0.0
2019-Aug-14 11:58N 51°50' W 008°20'0 0.0
2019-Aug-14 11:28N 51°50' W 008°20'0 0.0
2019-Aug-14 11:01N 51°50' W 008°20'0 0.0
2019-Aug-14 10:30N 51°50' W 008°20'0 0.0
2019-Aug-14 10:00N 51°50' W 008°20'0 0.0
2019-Aug-14 09:30N 51°50' W 008°20'0 0.0
2019-Aug-14 09:01N 51°50' W 008°20'0 0.0
2019-Aug-14 08:30N 51°50' W 008°20'0 0.0
2019-Aug-14 08:00N 51°50' W 008°20'0 0.0
2019-Aug-14 07:31N 51°50' W 008°20'0 0.0
2019-Aug-14 07:01N 51°50' W 008°20'0 0.2
2019-Aug-14 06:30N 51°50' W 008°20'2 4.9
2019-Aug-14 06:00N 51°51' W 008°16'611.6
2019-Aug-14 05:30N 51°45' W 008°15'4 8.4
2019-Aug-14 05:01N 51°41' W 008°13'5 9.9
2019-Aug-14 04:30N 51°38' W 008°07'510.1
2019-Aug-14 04:01N 51°34' W 008°01'714.3
2019-Aug-14 03:30N 51°29' W 007°53'714.5
2019-Aug-14 03:01N 51°24' W 007°45'814.9
2019-Aug-14 02:30N 51°19' W 007°35'12912.5
2019-Aug-13 16:09N 50°10' W 004°43'216.1
2019-Aug-13 16:00N 50°12' W 004°42'7 0.7
2019-Aug-13 05:59N 50°19' W 004°38'4 8.1
2019-Aug-13 05:30N 50°17' W 004°32'5 9.8
2019-Aug-13 05:00N 50°16' W 004°25'5 9.9
2019-Aug-13 04:30N 50°14' W 004°18'510.0
2019-Aug-13 04:00N 50°12' W 004°10'510.1
2019-Aug-13 03:31N 50°11' W 004°03'5 9.8
2019-Aug-13 03:00N 50°09' W 003°56'5 9.4
2019-Aug-13 02:30N 50°08' W 003°49'10 9.7
2019-Aug-13 01:30N 50°05' W 003°34'510.2
2019-Aug-13 01:00N 50°03' W 003°27'5 9.5
2019-Aug-13 00:31N 50°02' W 003°19'5 9.5
2019-Aug-13 00:00N 50°01' W 003°12'5 9.7
2019-Aug-12 23:31N 49°60' W 003°05'5 9.7
2019-Aug-12 23:01N 49°59' W 002°58'5 9.9
2019-Aug-12 22:31N 50°00' W 002°50'510.3
2019-Aug-12 22:00N 50°02' W 002°42'510.0
2019-Aug-12 21:28N 50°03' W 002°34'2710.3
2019-Aug-12 18:53N 50°10' W 001°54'  
Track history (hours):
 
Tides and Currents Weather Stations Pressure Air Temp Water Temp Dewpoint Dewpoint Depression Visibility Wind Speed Wind Dir Waves Ship Positions

Silver Wind

Operator: V Ships Leisure

Last reported at 2019-Aug-22 09:00 UTC. Time now 2019-Aug-22 09:30 UTC.
Position N 49°49' W 003°29'.

Length 156 m; draft 5.7 m.

Type: Passenger vessel. MMSI: 308814000.

Date/timePositionNaut miles runAvg speedWind from/ knotsBaromVisibWave heightAir tempDewpointWater temp
2019-Aug-22 09:00N 49°49' W 003°29'918.0
2019-Aug-22 08:30N 49°48' W 003°43'918.0
2019-Aug-22 08:01N 49°49' W 003°57'917.9
2019-Aug-22 07:30N 49°49' W 004°11'1117.7
2019-Aug-22 06:54N 49°49' W 004°27'717.4
2019-Aug-22 06:29N 49°49' W 004°38'917.3
2019-Aug-22 05:59N 49°49' W 004°52'817.1
2019-Aug-22 05:30N 49°49' W 005°04'917.1
2019-Aug-22 05:00N 49°49' W 005°18'1216.8
2019-Aug-22 04:19N 49°49' W 005°36'2213.2
2019-Aug-22 02:40N 50°03' W 006°01'1317.4
2019-Aug-22 01:57N 50°16' W 006°02'6616.7
2019-Aug-21 22:00N 51°22' W 006°00'120 5.4
2019-Aug-20 23:35N 53°22' W 005°56'5 7.4
2019-Aug-20 22:57N 53°20' W 006°03'4 9.3
2019-Aug-20 22:30N 53°21' W 006°10'2 3.4
2019-Aug-20 21:59N 53°21' W 006°13'0 0.0
2019-Aug-20 21:29N 53°21' W 006°13'0 0.0
2019-Aug-20 20:59N 53°21' W 006°13'0 0.0
2019-Aug-20 20:29N 53°21' W 006°13'0 0.0
2019-Aug-20 19:59N 53°21' W 006°13'0 0.0
2019-Aug-20 19:26N 53°21' W 006°13'0 0.0
2019-Aug-20 18:59N 53°21' W 006°13'0 0.0
2019-Aug-20 18:23N 53°21' W 006°13'0 0.0
2019-Aug-20 17:59N 53°21' W 006°13'0 0.0
2019-Aug-20 17:29N 53°21' W 006°13'0 0.0
2019-Aug-20 16:59N 53°21' W 006°13'0 0.0
2019-Aug-20 16:23N 53°21' W 006°13'0 0.0
2019-Aug-20 15:59N 53°21' W 006°13'0 0.0
2019-Aug-20 15:26N 53°21' W 006°13'0 0.0
2019-Aug-20 14:59N 53°21' W 006°13'0 0.0
2019-Aug-20 14:29N 53°21' W 006°13'0 0.0
2019-Aug-20 13:59N 53°21' W 006°13'0 0.0
2019-Aug-20 13:29N 53°21' W 006°13'0 0.0
2019-Aug-20 12:50N 53°21' W 006°13'0 0.0
2019-Aug-20 12:23N 53°21' W 006°13'0 0.0
2019-Aug-20 11:53N 53°21' W 006°13'0 0.0
2019-Aug-20 11:29N 53°21' W 006°13'0 0.0
2019-Aug-20 10:56N 53°21' W 006°13'0 0.0
2019-Aug-20 10:29N 53°21' W 006°13'0 0.0
2019-Aug-20 09:59N 53°21' W 006°13'0 0.0
2019-Aug-20 09:29N 53°21' W 006°13'0 0.0
2019-Aug-20 08:59N 53°21' W 006°13'0 0.0
2019-Aug-20 08:29N 53°21' W 006°13'0 0.0
2019-Aug-20 07:59N 53°21' W 006°13'0 0.0
2019-Aug-20 07:23N 53°21' W 006°13'0 0.0
2019-Aug-20 06:59N 53°21' W 006°13'0 0.0
2019-Aug-20 06:30N 53°21' W 006°13'2 4.2
2019-Aug-20 06:00N 53°21' W 006°09'510.5
2019-Aug-20 05:31N 53°22' W 006°01'5 9.5
2019-Aug-20 05:00N 53°26' W 005°56'5 9.9
2019-Aug-20 04:30N 53°30' W 005°53'3914.1
2019-Aug-20 01:43N 54°06' W 005°27'315.2
2019-Aug-20 01:30N 54°09' W 005°25'815.3
2019-Aug-20 01:00N 54°16' W 005°20'815.6
2019-Aug-20 00:30N 54°24' W 005°14'816.3
2019-Aug-20 00:00N 54°32' W 005°17'817.0
2019-Aug-19 23:30N 54°40' W 005°22'816.0
2019-Aug-19 23:00N 54°44' W 005°34'715.1
2019-Aug-19 22:30N 54°41' W 005°46'610.4
2019-Aug-19 21:59N 54°38' W 005°53'1 0.5
2019-Aug-19 20:29N 54°37' W 005°54'0 0.0
2019-Aug-19 19:47N 54°37' W 005°54'0 0.0
2019-Aug-19 18:50N 54°37' W 005°54'0 0.0
2019-Aug-19 18:29N 54°37' W 005°54'0 0.0
2019-Aug-19 17:59N 54°37' W 005°54'0 0.0
2019-Aug-19 17:26N 54°37' W 005°54'0 0.0
2019-Aug-19 16:59N 54°37' W 005°54'0 0.0
2019-Aug-19 16:29N 54°37' W 005°54'0 0.0
2019-Aug-19 15:59N 54°37' W 005°54'0 0.0
2019-Aug-19 15:29N 54°37' W 005°54'0 0.0
2019-Aug-19 14:59N 54°37' W 005°54'0 0.0
2019-Aug-19 14:26N 54°37' W 005°54'0 0.0
2019-Aug-19 13:59N 54°37' W 005°54'0 0.0
2019-Aug-19 13:26N 54°37' W 005°54'0 0.0
2019-Aug-19 12:44N 54°37' W 005°54'0 0.0
2019-Aug-19 12:26N 54°37' W 005°54'0 0.0
2019-Aug-19 11:59N 54°37' W 005°54'0 0.0
2019-Aug-19 11:29N 54°37' W 005°54'0 0.0
2019-Aug-19 10:56N 54°37' W 005°54'0 0.0
2019-Aug-19 10:29N 54°37' W 005°54'0 0.0
2019-Aug-19 09:56N 54°37' W 005°54'0 0.0
2019-Aug-19 09:29N 54°37' W 005°54'0 0.0
2019-Aug-19 08:56N 54°37' W 005°54'0 0.0
2019-Aug-19 08:29N 54°37' W 005°54'0 0.0
2019-Aug-19 07:53N 54°37' W 005°54'0 0.0
2019-Aug-19 07:29N 54°37' W 005°54'0 0.0
2019-Aug-19 06:59N 54°37' W 005°54'1 1.5
2019-Aug-19 06:30N 54°38' W 005°53'4 8.1
2019-Aug-19 06:00N 54°41' W 005°49'5 9.9
2019-Aug-19 05:30N 54°43' W 005°41'4 8.9
2019-Aug-19 05:00N 54°45' W 005°35'5 9.0
2019-Aug-19 04:30N 54°49' W 005°29'7 9.5
2019-Aug-19 03:47N 54°55' W 005°34'21 9.2
2019-Aug-19 01:33N 55°12' W 005°55'0 8.8
2019-Aug-19 01:30N 55°12' W 005°55'5 9.4
2019-Aug-19 01:00N 55°16' W 006°00'510.2
2019-Aug-19 00:30N 55°20' W 006°06'510.0
2019-Aug-19 00:00N 55°21' W 006°14'510.1
2019-Aug-18 23:30N 55°21' W 006°23'510.3
2019-Aug-18 23:00N 55°19' W 006°32'510.6
2019-Aug-18 22:30N 55°18' W 006°41'610.3
2019-Aug-18 21:58N 55°15' W 006°50'610.8
2019-Aug-18 21:27N 55°12' W 006°58'810.4
2019-Aug-18 20:37N 55°08' W 007°10'210.9
2019-Aug-18 20:25N 55°06' W 007°13'3 0.2
2019-Aug-18 05:48N 55°03' W 007°15'0 0.0
2019-Aug-18 05:09N 55°03' W 007°15'0 0.0
2019-Aug-18 03:57N 55°03' W 007°15'0 0.0
2019-Aug-17 08:47N 55°03' W 007°15'2 8.3
2019-Aug-17 08:29N 55°05' W 007°13'6 9.2
2019-Aug-17 07:52N 55°09' W 007°06'912.1
2019-Aug-17 07:07N 55°14' W 006°53'1 9.2
2019-Aug-17 06:59N 55°15' W 006°51'3 7.2
2019-Aug-17 06:30N 55°18' W 006°54'5 9.2
2019-Aug-17 05:57N 55°22' W 007°00'5 9.4
2019-Aug-17 05:26N 55°25' W 007°07'5 9.5
2019-Aug-17 04:57N 55°28' W 007°13'5 9.0
2019-Aug-17 04:22N 55°28' W 007°22'6 9.2
2019-Aug-17 03:45N 55°27' W 007°32'8 9.7
2019-Aug-17 02:58N 55°26' W 007°45'5 9.9
2019-Aug-17 02:30N 55°25' W 007°53'610.3
2019-Aug-17 01:55N 55°24' W 008°04'810.4
2019-Aug-17 01:07N 55°23' W 008°18'110.4
2019-Aug-17 00:59N 55°22' W 008°21'49 9.9
2019-Aug-16 20:05N 54°51' W 009°25'1510.3
2019-Aug-16 18:35N 54°39' W 009°43'710.0
2019-Aug-16 17:52N 54°34' W 009°51'810.1
2019-Aug-16 17:07N 54°28' W 009°60'310.1
2019-Aug-16 16:48N 54°26' W 010°04'310.3
2019-Aug-16 16:30N 54°24' W 010°07'612.5
2019-Aug-16 16:00N 54°19' W 010°14'714.2
2019-Aug-16 15:31N 54°14' W 010°22'714.2
2019-Aug-16 15:01N 54°08' W 010°30'713.4
2019-Aug-16 14:29N 54°01' W 010°32'713.6
2019-Aug-16 14:00N 53°55' W 010°32'713.2
2019-Aug-16 13:31N 53°48' W 010°31'713.1
2019-Aug-16 13:00N 53°42' W 010°30'713.3
2019-Aug-16 12:30N 53°35' W 010°30'612.9
2019-Aug-16 12:00N 53°29' W 010°27'712.7
2019-Aug-16 11:27N 53°23' W 010°22'612.6
2019-Aug-16 11:00N 53°18' W 010°18'611.6
2019-Aug-16 10:30N 53°14' W 010°10'611.8
2019-Aug-16 09:59N 53°13' W 009°60'611.7
2019-Aug-16 09:29N 53°12' W 009°50'612.8
2019-Aug-16 08:59N 53°12' W 009°40'102 8.0
2019-Aug-15 20:14N 51°34' W 010°30'415.6
2019-Aug-15 19:58N 51°31' W 010°26'714.8
2019-Aug-15 19:31N 51°30' W 010°15'815.5
2019-Aug-15 19:01N 51°33' W 010°03'816.1
2019-Aug-15 18:31N 51°35' W 009°51'816.6
2019-Aug-15 18:01N 51°39' W 009°39'713.9
2019-Aug-15 17:29N 51°43' W 009°29'2 3.1
2019-Aug-15 16:57N 51°41' W 009°28'0 0.0
2019-Aug-15 16:10N 51°41' W 009°28'0 0.1
2019-Aug-15 15:57N 51°41' W 009°28'0 0.0
2019-Aug-15 15:28N 51°41' W 009°28'0 0.0
2019-Aug-15 14:55N 51°41' W 009°28'0 0.0
2019-Aug-15 14:21N 51°41' W 009°28'0 0.0
2019-Aug-15 13:57N 51°41' W 009°28'0 0.1
2019-Aug-15 13:28N 51°41' W 009°28'0 0.0
2019-Aug-15 13:00N 51°41' W 009°28'0 0.0
2019-Aug-15 12:27N 51°41' W 009°28'0 0.0
2019-Aug-15 11:59N 51°41' W 009°28'0 0.1
2019-Aug-15 11:29N 51°41' W 009°28'0 0.0
2019-Aug-15 10:44N 51°41' W 009°28'0 0.0
2019-Aug-15 10:26N 51°41' W 009°28'0 0.0
2019-Aug-15 09:59N 51°41' W 009°28'0 0.0
2019-Aug-15 09:17N 51°41' W 009°28'0 0.0
2019-Aug-15 08:21N 51°41' W 009°28'0 0.0
2019-Aug-15 07:50N 51°41' W 009°28'0 0.0
2019-Aug-15 07:27N 51°41' W 009°28'0 0.0
2019-Aug-15 06:56N 51°41' W 009°28'0 0.0
2019-Aug-15 06:30N 51°41' W 009°28'2 3.8
2019-Aug-15 06:00N 51°42' W 009°30'4 9.0
2019-Aug-15 05:31N 51°40' W 009°36'5 9.6
2019-Aug-15 05:01N 51°38' W 009°43'510.0
2019-Aug-15 04:30N 51°35' W 009°50'510.3
2019-Aug-15 04:01N 51°32' W 009°56'510.8
2019-Aug-15 03:31N 51°27' W 009°58'611.0
2019-Aug-15 03:00N 51°22' W 009°53'510.1
2019-Aug-15 02:31N 51°21' W 009°45'510.2
2019-Aug-15 02:00N 51°20' W 009°37'510.2
2019-Aug-15 01:29N 51°21' W 009°28'5 9.7
2019-Aug-15 01:00N 51°23' W 009°21'610.0
2019-Aug-15 00:27N 51°24' W 009°13'510.3
2019-Aug-14 23:59N 51°26' W 009°05'5 9.2
2019-Aug-14 23:29N 51°27' W 008°58'5 9.5
2019-Aug-14 22:58N 51°28' W 008°50'4 9.6
2019-Aug-14 22:30N 51°29' W 008°44'5 9.9
2019-Aug-14 22:00N 51°30' W 008°36'510.1
2019-Aug-14 21:30N 51°31' W 008°28'5 9.6
2019-Aug-14 21:01N 51°34' W 008°22'510.1
2019-Aug-14 20:31N 51°39' W 008°18'510.0
2019-Aug-14 20:00N 51°43' W 008°15'510.4
2019-Aug-14 19:30N 51°49' W 008°16'3 5.4
2019-Aug-14 19:00N 51°50' W 008°20'0 0.1
2019-Aug-14 18:28N 51°50' W 008°20'0 0.0
2019-Aug-14 17:58N 51°50' W 008°20'0 0.0
2019-Aug-14 17:28N 51°50' W 008°20'0 0.0
2019-Aug-14 16:58N 51°50' W 008°20'0 0.0
2019-Aug-14 16:25N 51°50' W 008°20'0 0.0
2019-Aug-14 15:58N 51°50' W 008°20'0 0.0
2019-Aug-14 15:28N 51°50' W 008°20'0 0.0
2019-Aug-14 14:58N 51°50' W 008°20'0 0.0
2019-Aug-14 14:28N 51°50' W 008°20'0 0.0
2019-Aug-14 13:58N 51°50' W 008°20'0 0.0
2019-Aug-14 13:28N 51°50' W 008°20'0 0.0
2019-Aug-14 12:58N 51°50' W 008°20'0 0.0
2019-Aug-14 12:28N 51°50' W 008°20'0 0.0
2019-Aug-14 11:58N 51°50' W 008°20'0 0.0
2019-Aug-14 11:28N 51°50' W 008°20'0 0.0
2019-Aug-14 11:01N 51°50' W 008°20'0 0.0
2019-Aug-14 10:30N 51°50' W 008°20'0 0.0
2019-Aug-14 10:00N 51°50' W 008°20'0 0.0
2019-Aug-14 09:30N 51°50' W 008°20'0 0.0
2019-Aug-14 09:01N 51°50' W 008°20'0 0.0
2019-Aug-14 08:30N 51°50' W 008°20'0 0.0
2019-Aug-14 08:00N 51°50' W 008°20'0 0.0
2019-Aug-14 07:31N 51°50' W 008°20'0 0.0
2019-Aug-14 07:01N 51°50' W 008°20'0 0.2
2019-Aug-14 06:30N 51°50' W 008°20'2 4.9
2019-Aug-14 06:00N 51°51' W 008°16'611.6
2019-Aug-14 05:30N 51°45' W 008°15'4 8.4
2019-Aug-14 05:01N 51°41' W 008°13'5 9.9
2019-Aug-14 04:30N 51°38' W 008°07'510.1
2019-Aug-14 04:01N 51°34' W 008°01'714.3
2019-Aug-14 03:30N 51°29' W 007°53'714.5
2019-Aug-14 03:01N 51°24' W 007°45'814.9
2019-Aug-14 02:30N 51°19' W 007°35'12912.5
2019-Aug-13 16:09N 50°10' W 004°43'216.1
2019-Aug-13 16:00N 50°12' W 004°42'7 0.7
2019-Aug-13 05:59N 50°19' W 004°38'4 8.1
2019-Aug-13 05:30N 50°17' W 004°32'5 9.8
2019-Aug-13 05:00N 50°16' W 004°25'5 9.9
2019-Aug-13 04:30N 50°14' W 004°18'510.0
2019-Aug-13 04:00N 50°12' W 004°10'510.1
2019-Aug-13 03:31N 50°11' W 004°03'5 9.8
2019-Aug-13 03:00N 50°09' W 003°56'5 9.4
2019-Aug-13 02:30N 50°08' W 003°49'10 9.7
2019-Aug-13 01:30N 50°05' W 003°34'510.2
2019-Aug-13 01:00N 50°03' W 003°27'5 9.5
2019-Aug-13 00:31N 50°02' W 003°19'5 9.5
2019-Aug-13 00:00N 50°01' W 003°12'5 9.7
2019-Aug-12 23:31N 49°60' W 003°05'5 9.7
2019-Aug-12 23:01N 49°59' W 002°58'5 9.9
2019-Aug-12 22:31N 50°00' W 002°50'510.3
2019-Aug-12 22:00N 50°02' W 002°42'510.0
2019-Aug-12 21:28N 50°03' W 002°34'2710.3
2019-Aug-12 18:53N 50°10' W 001°54'  

Dump ship's entire track history